sensor_id;sensor_type;location;lat;lon;timestamp;P1;durP1;ratioP1;P2;durP2;ratioP2
59922;SDS011;45778;51.142;3.732;2022-12-17T00:00:08;80.35;;;48.85;;
59922;SDS011;45778;51.142;3.732;2022-12-17T00:02:56;75.43;;;45.90;;
59922;SDS011;45778;51.142;3.732;2022-12-17T00:05:41;74.45;;;44.97;;
59922;SDS011;45778;51.142;3.732;2022-12-17T00:08:26;77.57;;;46.67;;
59922;SDS011;45778;51.142;3.732;2022-12-17T00:11:10;81.35;;;47.55;;
59922;SDS011;45778;51.142;3.732;2022-12-17T00:13:54;88.30;;;48.83;;
59922;SDS011;45778;51.142;3.732;2022-12-17T00:16:38;83.43;;;49.08;;
59922;SDS011;45778;51.142;3.732;2022-12-17T00:19:22;84.60;;;50.00;;
59922;SDS011;45778;51.142;3.732;2022-12-17T00:22:06;82.05;;;47.85;;
59922;SDS011;45778;51.142;3.732;2022-12-17T00:24:50;77.85;;;45.65;;
59922;SDS011;45778;51.142;3.732;2022-12-17T00:27:34;81.20;;;48.22;;
59922;SDS011;45778;51.142;3.732;2022-12-17T00:30:19;85.35;;;47.40;;
59922;SDS011;45778;51.142;3.732;2022-12-17T00:33:02;86.10;;;47.53;;
59922;SDS011;45778;51.142;3.732;2022-12-17T00:35:51;86.65;;;46.20;;
59922;SDS011;45778;51.142;3.732;2022-12-17T00:38:35;75.95;;;45.03;;
59922;SDS011;45778;51.142;3.732;2022-12-17T00:41:19;80.05;;;45.45;;
59922;SDS011;45778;51.142;3.732;2022-12-17T00:44:04;90.22;;;46.00;;
59922;SDS011;45778;51.142;3.732;2022-12-17T00:46:48;73.15;;;43.80;;
59922;SDS011;45778;51.142;3.732;2022-12-17T00:49:32;70.70;;;41.65;;
59922;SDS011;45778;51.142;3.732;2022-12-17T00:52:16;79.32;;;42.85;;
59922;SDS011;45778;51.142;3.732;2022-12-17T00:55:01;78.07;;;44.50;;
59922;SDS011;45778;51.142;3.732;2022-12-17T00:57:45;82.97;;;44.67;;
59922;SDS011;45778;51.142;3.732;2022-12-17T01:00:34;74.32;;;42.10;;
59922;SDS011;45778;51.142;3.732;2022-12-17T01:03:18;71.28;;;43.45;;
59922;SDS011;45778;51.142;3.732;2022-12-17T01:06:19;63.55;;;39.15;;
59922;SDS011;45778;51.142;3.732;2022-12-17T01:09:03;68.38;;;39.58;;
59922;SDS011;45778;51.142;3.732;2022-12-17T01:11:47;74.18;;;41.78;;
59922;SDS011;45778;51.142;3.732;2022-12-17T01:14:31;68.68;;;40.92;;
59922;SDS011;45778;51.142;3.732;2022-12-17T01:17:15;74.70;;;43.13;;
59922;SDS011;45778;51.142;3.732;2022-12-17T01:19:59;64.68;;;40.13;;
59922;SDS011;45778;51.142;3.732;2022-12-17T01:22:44;70.25;;;40.78;;
59922;SDS011;45778;51.142;3.732;2022-12-17T01:25:29;78.22;;;46.45;;
59922;SDS011;45778;51.142;3.732;2022-12-17T01:28:19;83.93;;;46.05;;
59922;SDS011;45778;51.142;3.732;2022-12-17T01:31:04;83.07;;;46.47;;
59922;SDS011;45778;51.142;3.732;2022-12-17T01:33:48;87.90;;;48.58;;
59922;SDS011;45778;51.142;3.732;2022-12-17T01:36:33;91.53;;;50.22;;
59922;SDS011;45778;51.142;3.732;2022-12-17T01:39:17;87.15;;;49.83;;
59922;SDS011;45778;51.142;3.732;2022-12-17T01:42:01;76.25;;;45.25;;
59922;SDS011;45778;51.142;3.732;2022-12-17T01:44:52;88.35;;;46.55;;
59922;SDS011;45778;51.142;3.732;2022-12-17T01:50:36;95.25;;;49.30;;
59922;SDS011;45778;51.142;3.732;2022-12-17T01:53:24;90.45;;;44.13;;
59922;SDS011;45778;51.142;3.732;2022-12-17T01:56:12;94.60;;;48.90;;
59922;SDS011;45778;51.142;3.732;2022-12-17T01:58:56;73.28;;;43.35;;
59922;SDS011;45778;51.142;3.732;2022-12-17T02:01:41;90.75;;;46.55;;
59922;SDS011;45778;51.142;3.732;2022-12-17T02:04:25;80.95;;;43.55;;
59922;SDS011;45778;51.142;3.732;2022-12-17T02:13:09;74.57;;;41.30;;
59922;SDS011;45778;51.142;3.732;2022-12-17T02:16:00;71.88;;;38.92;;
59922;SDS011;45778;51.142;3.732;2022-12-17T02:18:59;68.32;;;38.00;;
59922;SDS011;45778;51.142;3.732;2022-12-17T02:21:53;70.15;;;36.00;;
59922;SDS011;45778;51.142;3.732;2022-12-17T02:24:44;67.85;;;35.70;;
59922;SDS011;45778;51.142;3.732;2022-12-17T02:27:33;63.47;;;35.78;;
59922;SDS011;45778;51.142;3.732;2022-12-17T02:30:18;68.35;;;34.08;;
59922;SDS011;45778;51.142;3.732;2022-12-17T02:33:03;68.53;;;34.30;;
59922;SDS011;45778;51.142;3.732;2022-12-17T02:35:56;69.35;;;37.35;;
59922;SDS011;45778;51.142;3.732;2022-12-17T02:38:45;68.35;;;38.53;;
59922;SDS011;45778;51.142;3.732;2022-12-17T02:41:30;64.38;;;36.60;;
59922;SDS011;45778;51.142;3.732;2022-12-17T02:44:20;73.68;;;37.58;;
59922;SDS011;45778;51.142;3.732;2022-12-17T02:47:05;65.88;;;39.40;;
59922;SDS011;45778;51.142;3.732;2022-12-17T02:49:52;69.20;;;36.47;;
59922;SDS011;45778;51.142;3.732;2022-12-17T02:52:38;63.22;;;34.92;;
59922;SDS011;45778;51.142;3.732;2022-12-17T02:55:24;60.50;;;33.38;;
59922;SDS011;45778;51.142;3.732;2022-12-17T02:58:08;67.00;;;37.33;;
59922;SDS011;45778;51.142;3.732;2022-12-17T03:00:52;63.97;;;37.38;;
59922;SDS011;45778;51.142;3.732;2022-12-17T03:03:36;63.38;;;36.05;;
59922;SDS011;45778;51.142;3.732;2022-12-17T03:06:21;63.92;;;35.72;;
59922;SDS011;45778;51.142;3.732;2022-12-17T03:09:05;56.90;;;34.33;;
59922;SDS011;45778;51.142;3.732;2022-12-17T03:11:49;60.30;;;33.40;;
59922;SDS011;45778;51.142;3.732;2022-12-17T03:14:33;65.60;;;34.17;;
59922;SDS011;45778;51.142;3.732;2022-12-17T03:17:17;63.92;;;34.70;;
59922;SDS011;45778;51.142;3.732;2022-12-17T03:20:01;58.85;;;34.85;;
59922;SDS011;45778;51.142;3.732;2022-12-17T03:22:45;56.80;;;34.45;;
59922;SDS011;45778;51.142;3.732;2022-12-17T03:25:29;60.05;;;32.42;;
59922;SDS011;45778;51.142;3.732;2022-12-17T03:28:13;59.92;;;33.30;;
59922;SDS011;45778;51.142;3.732;2022-12-17T03:30:58;53.88;;;31.42;;
59922;SDS011;45778;51.142;3.732;2022-12-17T03:33:42;60.97;;;33.22;;
59922;SDS011;45778;51.142;3.732;2022-12-17T03:36:26;60.13;;;33.90;;
59922;SDS011;45778;51.142;3.732;2022-12-17T03:39:10;58.00;;;33.70;;
59922;SDS011;45778;51.142;3.732;2022-12-17T03:41:55;56.75;;;33.53;;
59922;SDS011;45778;51.142;3.732;2022-12-17T03:44:39;59.58;;;34.03;;
59922;SDS011;45778;51.142;3.732;2022-12-17T03:47:23;63.25;;;35.58;;
59922;SDS011;45778;51.142;3.732;2022-12-17T03:50:07;59.83;;;35.13;;
59922;SDS011;45778;51.142;3.732;2022-12-17T03:52:52;63.08;;;35.33;;
59922;SDS011;45778;51.142;3.732;2022-12-17T03:55:36;62.08;;;35.80;;
59922;SDS011;45778;51.142;3.732;2022-12-17T03:58:21;63.05;;;34.22;;
59922;SDS011;45778;51.142;3.732;2022-12-17T04:01:05;57.45;;;34.25;;
59922;SDS011;45778;51.142;3.732;2022-12-17T04:03:49;62.15;;;35.67;;
59922;SDS011;45778;51.142;3.732;2022-12-17T04:06:33;58.25;;;33.95;;
59922;SDS011;45778;51.142;3.732;2022-12-17T04:09:17;63.05;;;34.70;;
59922;SDS011;45778;51.142;3.732;2022-12-17T04:12:02;60.03;;;32.33;;
59922;SDS011;45778;51.142;3.732;2022-12-17T04:14:46;54.42;;;32.95;;
59922;SDS011;45778;51.142;3.732;2022-12-17T04:17:30;60.05;;;35.40;;
59922;SDS011;45778;51.142;3.732;2022-12-17T04:20:15;57.95;;;33.42;;
59922;SDS011;45778;51.142;3.732;2022-12-17T04:22:59;60.67;;;34.95;;
59922;SDS011;45778;51.142;3.732;2022-12-17T04:25:43;55.67;;;32.95;;
59922;SDS011;45778;51.142;3.732;2022-12-17T04:28:27;56.05;;;32.55;;
59922;SDS011;45778;51.142;3.732;2022-12-17T04:31:11;51.58;;;30.92;;
59922;SDS011;45778;51.142;3.732;2022-12-17T04:33:55;52.78;;;30.58;;
59922;SDS011;45778;51.142;3.732;2022-12-17T04:36:39;53.53;;;29.48;;
59922;SDS011;45778;51.142;3.732;2022-12-17T04:39:23;49.78;;;29.30;;
59922;SDS011;45778;51.142;3.732;2022-12-17T04:42:07;63.25;;;29.63;;
59922;SDS011;45778;51.142;3.732;2022-12-17T04:44:51;53.45;;;30.75;;
59922;SDS011;45778;51.142;3.732;2022-12-17T04:48:02;52.00;;;29.98;;
59922;SDS011;45778;51.142;3.732;2022-12-17T04:50:48;51.67;;;28.83;;
59922;SDS011;45778;51.142;3.732;2022-12-17T04:53:33;54.28;;;30.65;;
59922;SDS011;45778;51.142;3.732;2022-12-17T04:56:17;60.58;;;32.30;;
59922;SDS011;45778;51.142;3.732;2022-12-17T04:59:01;57.78;;;33.58;;
59922;SDS011;45778;51.142;3.732;2022-12-17T05:01:45;60.05;;;33.63;;
59922;SDS011;45778;51.142;3.732;2022-12-17T05:04:30;61.28;;;32.95;;
59922;SDS011;45778;51.142;3.732;2022-12-17T05:07:14;60.42;;;33.13;;
59922;SDS011;45778;51.142;3.732;2022-12-17T05:09:58;67.93;;;33.50;;
59922;SDS011;45778;51.142;3.732;2022-12-17T05:12:42;58.85;;;32.35;;
59922;SDS011;45778;51.142;3.732;2022-12-17T05:15:26;58.60;;;31.95;;
59922;SDS011;45778;51.142;3.732;2022-12-17T05:18:10;65.03;;;32.58;;
59922;SDS011;45778;51.142;3.732;2022-12-17T05:20:54;60.08;;;31.75;;
59922;SDS011;45778;51.142;3.732;2022-12-17T05:23:38;53.13;;;30.27;;
59922;SDS011;45778;51.142;3.732;2022-12-17T05:26:24;60.20;;;32.08;;
59922;SDS011;45778;51.142;3.732;2022-12-17T05:29:09;48.88;;;30.33;;
59922;SDS011;45778;51.142;3.732;2022-12-17T05:31:54;52.38;;;30.50;;
59922;SDS011;45778;51.142;3.732;2022-12-17T05:34:38;52.72;;;28.88;;
59922;SDS011;45778;51.142;3.732;2022-12-17T05:37:22;51.08;;;29.70;;
59922;SDS011;45778;51.142;3.732;2022-12-17T05:40:07;53.83;;;30.25;;
59922;SDS011;45778;51.142;3.732;2022-12-17T05:42:58;49.55;;;28.65;;
59922;SDS011;45778;51.142;3.732;2022-12-17T05:45:44;50.60;;;28.73;;
59922;SDS011;45778;51.142;3.732;2022-12-17T05:48:30;44.95;;;27.40;;
59922;SDS011;45778;51.142;3.732;2022-12-17T05:51:15;48.95;;;27.85;;
59922;SDS011;45778;51.142;3.732;2022-12-17T05:53:59;50.60;;;29.38;;
59922;SDS011;45778;51.142;3.732;2022-12-17T05:56:43;53.63;;;28.73;;
59922;SDS011;45778;51.142;3.732;2022-12-17T05:59:28;51.40;;;29.08;;
59922;SDS011;45778;51.142;3.732;2022-12-17T06:02:12;49.03;;;28.27;;
59922;SDS011;45778;51.142;3.732;2022-12-17T06:04:56;53.35;;;29.52;;
59922;SDS011;45778;51.142;3.732;2022-12-17T06:07:40;54.92;;;30.50;;
59922;SDS011;45778;51.142;3.732;2022-12-17T06:10:24;56.78;;;31.92;;
59922;SDS011;45778;51.142;3.732;2022-12-17T06:13:08;54.13;;;30.85;;
59922;SDS011;45778;51.142;3.732;2022-12-17T06:15:52;49.22;;;28.73;;
59922;SDS011;45778;51.142;3.732;2022-12-17T06:18:37;50.92;;;26.95;;
59922;SDS011;45778;51.142;3.732;2022-12-17T06:21:21;47.47;;;27.92;;
59922;SDS011;45778;51.142;3.732;2022-12-17T06:24:05;50.78;;;28.50;;
59922;SDS011;45778;51.142;3.732;2022-12-17T06:26:50;56.30;;;29.90;;
59922;SDS011;45778;51.142;3.732;2022-12-17T06:29:34;54.10;;;29.85;;
59922;SDS011;45778;51.142;3.732;2022-12-17T06:32:18;49.85;;;28.92;;
59922;SDS011;45778;51.142;3.732;2022-12-17T06:35:02;44.30;;;26.77;;
59922;SDS011;45778;51.142;3.732;2022-12-17T06:38:02;48.15;;;27.27;;
59922;SDS011;45778;51.142;3.732;2022-12-17T06:40:47;52.50;;;28.75;;
59922;SDS011;45778;51.142;3.732;2022-12-17T06:43:31;48.22;;;27.95;;
59922;SDS011;45778;51.142;3.732;2022-12-17T06:46:15;49.10;;;27.85;;
59922;SDS011;45778;51.142;3.732;2022-12-17T06:49:00;59.88;;;29.65;;
59922;SDS011;45778;51.142;3.732;2022-12-17T06:51:44;55.42;;;30.20;;
59922;SDS011;45778;51.142;3.732;2022-12-17T06:54:28;53.08;;;27.90;;
59922;SDS011;45778;51.142;3.732;2022-12-17T06:57:12;61.83;;;29.20;;
59922;SDS011;45778;51.142;3.732;2022-12-17T06:59:56;49.05;;;27.45;;
59922;SDS011;45778;51.142;3.732;2022-12-17T07:02:40;51.70;;;27.63;;
59922;SDS011;45778;51.142;3.732;2022-12-17T07:05:24;59.45;;;28.63;;
59922;SDS011;45778;51.142;3.732;2022-12-17T07:08:09;58.22;;;31.60;;
59922;SDS011;45778;51.142;3.732;2022-12-17T07:10:53;53.90;;;29.20;;
59922;SDS011;45778;51.142;3.732;2022-12-17T07:13:37;59.25;;;29.98;;
59922;SDS011;45778;51.142;3.732;2022-12-17T07:16:21;60.63;;;31.35;;
59922;SDS011;45778;51.142;3.732;2022-12-17T07:19:05;60.45;;;32.58;;
59922;SDS011;45778;51.142;3.732;2022-12-17T07:21:49;59.45;;;33.40;;
59922;SDS011;45778;51.142;3.732;2022-12-17T07:24:33;68.45;;;34.17;;
59922;SDS011;45778;51.142;3.732;2022-12-17T07:27:17;53.05;;;30.10;;
59922;SDS011;45778;51.142;3.732;2022-12-17T07:30:02;60.22;;;30.75;;
59922;SDS011;45778;51.142;3.732;2022-12-17T07:32:46;57.50;;;29.40;;
59922;SDS011;45778;51.142;3.732;2022-12-17T07:35:30;60.80;;;34.67;;
59922;SDS011;45778;51.142;3.732;2022-12-17T07:38:14;61.95;;;32.10;;
59922;SDS011;45778;51.142;3.732;2022-12-17T07:40:58;60.08;;;32.53;;
59922;SDS011;45778;51.142;3.732;2022-12-17T07:43:43;58.65;;;31.17;;
59922;SDS011;45778;51.142;3.732;2022-12-17T07:46:27;65.30;;;33.00;;
59922;SDS011;45778;51.142;3.732;2022-12-17T07:49:11;60.42;;;31.10;;
59922;SDS011;45778;51.142;3.732;2022-12-17T07:51:55;59.33;;;31.45;;
59922;SDS011;45778;51.142;3.732;2022-12-17T07:54:39;59.35;;;32.08;;
59922;SDS011;45778;51.142;3.732;2022-12-17T07:57:24;60.17;;;32.60;;
59922;SDS011;45778;51.142;3.732;2022-12-17T08:00:08;59.28;;;31.95;;
59922;SDS011;45778;51.142;3.732;2022-12-17T08:02:59;58.80;;;31.20;;
59922;SDS011;45778;51.142;3.732;2022-12-17T08:05:43;56.08;;;32.75;;
59922;SDS011;45778;51.142;3.732;2022-12-17T08:08:28;61.70;;;33.30;;
59922;SDS011;45778;51.142;3.732;2022-12-17T08:11:21;63.80;;;33.92;;
59922;SDS011;45778;51.142;3.732;2022-12-17T08:14:05;59.65;;;33.25;;
59922;SDS011;45778;51.142;3.732;2022-12-17T08:16:49;59.63;;;31.70;;
59922;SDS011;45778;51.142;3.732;2022-12-17T08:19:33;56.75;;;32.13;;
59922;SDS011;45778;51.142;3.732;2022-12-17T08:22:18;61.60;;;33.15;;
59922;SDS011;45778;51.142;3.732;2022-12-17T08:25:02;57.40;;;33.13;;
59922;SDS011;45778;51.142;3.732;2022-12-17T08:27:46;63.28;;;33.60;;
59922;SDS011;45778;51.142;3.732;2022-12-17T08:30:30;57.30;;;30.95;;
59922;SDS011;45778;51.142;3.732;2022-12-17T08:33:14;53.20;;;30.80;;
59922;SDS011;45778;51.142;3.732;2022-12-17T08:35:59;52.30;;;31.58;;
59922;SDS011;45778;51.142;3.732;2022-12-17T08:38:43;53.75;;;30.90;;
59922;SDS011;45778;51.142;3.732;2022-12-17T08:41:28;56.63;;;31.48;;
59922;SDS011;45778;51.142;3.732;2022-12-17T08:44:12;53.95;;;31.48;;
59922;SDS011;45778;51.142;3.732;2022-12-17T08:46:56;58.30;;;33.22;;
59922;SDS011;45778;51.142;3.732;2022-12-17T08:49:40;52.17;;;30.83;;
59922;SDS011;45778;51.142;3.732;2022-12-17T08:52:24;60.72;;;33.58;;
59922;SDS011;45778;51.142;3.732;2022-12-17T08:55:08;56.72;;;32.20;;
59922;SDS011;45778;51.142;3.732;2022-12-17T08:57:53;58.65;;;32.53;;
59922;SDS011;45778;51.142;3.732;2022-12-17T09:00:39;60.38;;;33.33;;
59922;SDS011;45778;51.142;3.732;2022-12-17T09:03:24;63.05;;;36.30;;
59922;SDS011;45778;51.142;3.732;2022-12-17T09:06:08;56.38;;;34.95;;
59922;SDS011;45778;51.142;3.732;2022-12-17T09:08:53;64.03;;;34.72;;
59922;SDS011;45778;51.142;3.732;2022-12-17T09:11:37;60.33;;;34.67;;
59922;SDS011;45778;51.142;3.732;2022-12-17T09:14:21;57.95;;;32.13;;
59922;SDS011;45778;51.142;3.732;2022-12-17T09:17:05;61.25;;;33.53;;
59922;SDS011;45778;51.142;3.732;2022-12-17T09:19:49;61.33;;;35.10;;
59922;SDS011;45778;51.142;3.732;2022-12-17T09:22:33;70.78;;;37.63;;
59922;SDS011;45778;51.142;3.732;2022-12-17T09:25:17;62.33;;;36.85;;
59922;SDS011;45778;51.142;3.732;2022-12-17T09:28:01;69.38;;;37.67;;
59922;SDS011;45778;51.142;3.732;2022-12-17T09:30:46;65.05;;;36.40;;
59922;SDS011;45778;51.142;3.732;2022-12-17T09:33:31;70.10;;;38.40;;
59922;SDS011;45778;51.142;3.732;2022-12-17T09:36:15;89.20;;;52.00;;
59922;SDS011;45778;51.142;3.732;2022-12-17T09:39:00;58.95;;;36.20;;
59922;SDS011;45778;51.142;3.732;2022-12-17T09:51:25;62.83;;;34.92;;
59922;SDS011;45778;51.142;3.732;2022-12-17T09:57:20;60.65;;;34.50;;
59922;SDS011;45778;51.142;3.732;2022-12-17T10:00:14;57.20;;;34.63;;
59922;SDS011;45778;51.142;3.732;2022-12-17T10:03:01;55.00;;;32.17;;
59922;SDS011;45778;51.142;3.732;2022-12-17T10:05:49;55.72;;;32.15;;
59922;SDS011;45778;51.142;3.732;2022-12-17T10:08:33;51.03;;;31.17;;
59922;SDS011;45778;51.142;3.732;2022-12-17T10:11:27;56.40;;;33.60;;
59922;SDS011;45778;51.142;3.732;2022-12-17T10:14:22;61.72;;;33.40;;
59922;SDS011;45778;51.142;3.732;2022-12-17T10:17:15;61.67;;;33.95;;
59922;SDS011;45778;51.142;3.732;2022-12-17T10:23:25;64.95;;;34.45;;
59922;SDS011;45778;51.142;3.732;2022-12-17T10:26:19;63.58;;;34.38;;
59922;SDS011;45778;51.142;3.732;2022-12-17T10:29:12;61.03;;;32.72;;
59922;SDS011;45778;51.142;3.732;2022-12-17T10:32:21;58.35;;;32.92;;
59922;SDS011;45778;51.142;3.732;2022-12-17T10:35:13;59.15;;;33.22;;
59922;SDS011;45778;51.142;3.732;2022-12-17T10:41:24;59.97;;;33.38;;
59922;SDS011;45778;51.142;3.732;2022-12-17T10:47:14;57.13;;;32.42;;
59922;SDS011;45778;51.142;3.732;2022-12-17T10:50:24;56.65;;;33.15;;
59922;SDS011;45778;51.142;3.732;2022-12-17T10:53:17;56.45;;;32.67;;
59922;SDS011;45778;51.142;3.732;2022-12-17T10:56:03;60.50;;;33.70;;
59922;SDS011;45778;51.142;3.732;2022-12-17T10:58:49;59.47;;;32.58;;
59922;SDS011;45778;51.142;3.732;2022-12-17T11:01:36;52.28;;;31.17;;
59922;SDS011;45778;51.142;3.732;2022-12-17T11:04:26;50.70;;;26.35;;
59922;SDS011;45778;51.142;3.732;2022-12-17T11:10:35;51.72;;;28.42;;
59922;SDS011;45778;51.142;3.732;2022-12-17T11:13:29;50.20;;;26.08;;
59922;SDS011;45778;51.142;3.732;2022-12-17T11:16:35;51.00;;;26.52;;
59922;SDS011;45778;51.142;3.732;2022-12-17T11:22:33;57.50;;;30.58;;
59922;SDS011;45778;51.142;3.732;2022-12-17T11:31:11;49.83;;;26.80;;
59922;SDS011;45778;51.142;3.732;2022-12-17T11:37:20;45.67;;;28.10;;
59922;SDS011;45778;51.142;3.732;2022-12-17T11:48:51;51.08;;;33.55;;
59922;SDS011;45778;51.142;3.732;2022-12-17T11:51:47;43.47;;;29.58;;
59922;SDS011;45778;51.142;3.732;2022-12-17T11:54:53;46.83;;;30.08;;
59922;SDS011;45778;51.142;3.732;2022-12-17T11:58:00;42.80;;;27.58;;
59922;SDS011;45778;51.142;3.732;2022-12-17T12:00:54;48.97;;;27.30;;
59922;SDS011;45778;51.142;3.732;2022-12-17T12:04:20;42.55;;;27.60;;
59922;SDS011;45778;51.142;3.732;2022-12-17T12:07:20;44.42;;;26.83;;
59922;SDS011;45778;51.142;3.732;2022-12-17T12:10:17;36.03;;;24.90;;
59922;SDS011;45778;51.142;3.732;2022-12-17T12:22:24;31.23;;;22.80;;
59922;SDS011;45778;51.142;3.732;2022-12-17T12:25:41;32.55;;;23.50;;
59922;SDS011;45778;51.142;3.732;2022-12-17T12:32:24;32.25;;;22.02;;
59922;SDS011;45778;51.142;3.732;2022-12-17T12:35:24;33.55;;;21.13;;
59922;SDS011;45778;51.142;3.732;2022-12-17T12:38:14;29.17;;;20.85;;
59922;SDS011;45778;51.142;3.732;2022-12-17T12:41:23;32.65;;;21.98;;
59922;SDS011;45778;51.142;3.732;2022-12-17T12:44:46;31.85;;;21.02;;
59922;SDS011;45778;51.142;3.732;2022-12-17T12:47:56;30.30;;;21.63;;
59922;SDS011;45778;51.142;3.732;2022-12-17T12:53:33;34.50;;;20.92;;
59922;SDS011;45778;51.142;3.732;2022-12-17T12:56:28;32.15;;;20.33;;
59922;SDS011;45778;51.142;3.732;2022-12-17T12:59:26;30.35;;;20.02;;
59922;SDS011;45778;51.142;3.732;2022-12-17T13:02:27;31.63;;;20.20;;
59922;SDS011;45778;51.142;3.732;2022-12-17T13:05:24;31.48;;;20.63;;
59922;SDS011;45778;51.142;3.732;2022-12-17T13:08:02;28.13;;;20.38;;
59922;SDS011;45778;51.142;3.732;2022-12-17T13:13:12;29.55;;;19.75;;
59922;SDS011;45778;51.142;3.732;2022-12-17T13:15:43;30.50;;;20.70;;
59922;SDS011;45778;51.142;3.732;2022-12-17T13:21:03;29.83;;;19.35;;
59922;SDS011;45778;51.142;3.732;2022-12-17T13:23:46;32.85;;;20.45;;
59922;SDS011;45778;51.142;3.732;2022-12-17T13:26:13;34.17;;;22.30;;
59922;SDS011;45778;51.142;3.732;2022-12-17T13:29:27;31.73;;;20.80;;
59922;SDS011;45778;51.142;3.732;2022-12-17T13:31:54;35.30;;;23.40;;
59922;SDS011;45778;51.142;3.732;2022-12-17T13:34:24;33.75;;;20.88;;
59922;SDS011;45778;51.142;3.732;2022-12-17T13:36:59;28.42;;;19.90;;
59922;SDS011;45778;51.142;3.732;2022-12-17T13:39:51;29.40;;;19.27;;
59922;SDS011;45778;51.142;3.732;2022-12-17T13:42:26;29.88;;;19.17;;
59922;SDS011;45778;51.142;3.732;2022-12-17T13:44:54;32.92;;;21.20;;
59922;SDS011;45778;51.142;3.732;2022-12-17T13:47:22;34.80;;;21.30;;
59922;SDS011;45778;51.142;3.732;2022-12-17T13:49:54;33.42;;;21.63;;
59922;SDS011;45778;51.142;3.732;2022-12-17T13:52:25;31.27;;;20.90;;
59922;SDS011;45778;51.142;3.732;2022-12-17T13:54:52;35.28;;;21.55;;
59922;SDS011;45778;51.142;3.732;2022-12-17T13:57:29;32.58;;;21.55;;
59922;SDS011;45778;51.142;3.732;2022-12-17T13:59:56;30.20;;;20.73;;
59922;SDS011;45778;51.142;3.732;2022-12-17T14:04:53;32.15;;;20.13;;
59922;SDS011;45778;51.142;3.732;2022-12-17T14:07:21;31.05;;;20.98;;
59922;SDS011;45778;51.142;3.732;2022-12-17T14:09:47;33.03;;;21.17;;
59922;SDS011;45778;51.142;3.732;2022-12-17T14:12:14;32.15;;;20.00;;
59922;SDS011;45778;51.142;3.732;2022-12-17T14:14:57;34.72;;;23.67;;
59922;SDS011;45778;51.142;3.732;2022-12-17T14:17:34;32.85;;;22.35;;
59922;SDS011;45778;51.142;3.732;2022-12-17T14:20:13;35.42;;;22.92;;
59922;SDS011;45778;51.142;3.732;2022-12-17T14:22:43;34.03;;;21.13;;
59922;SDS011;45778;51.142;3.732;2022-12-17T14:25:30;30.88;;;21.65;;
59922;SDS011;45778;51.142;3.732;2022-12-17T14:34:03;34.00;;;21.95;;
59922;SDS011;45778;51.142;3.732;2022-12-17T14:36:35;34.63;;;22.75;;
59922;SDS011;45778;51.142;3.732;2022-12-17T14:39:04;37.33;;;23.15;;
59922;SDS011;45778;51.142;3.732;2022-12-17T14:41:49;39.45;;;23.73;;
59922;SDS011;45778;51.142;3.732;2022-12-17T14:44:35;37.92;;;24.13;;
59922;SDS011;45778;51.142;3.732;2022-12-17T14:57:52;42.72;;;26.50;;
59922;SDS011;45778;51.142;3.732;2022-12-17T15:00:19;40.78;;;25.63;;
59922;SDS011;45778;51.142;3.732;2022-12-17T15:02:51;46.55;;;26.40;;
59922;SDS011;45778;51.142;3.732;2022-12-17T15:05:18;46.85;;;27.05;;
59922;SDS011;45778;51.142;3.732;2022-12-17T15:07:44;44.88;;;25.75;;
59922;SDS011;45778;51.142;3.732;2022-12-17T15:10:11;47.70;;;27.33;;
59922;SDS011;45778;51.142;3.732;2022-12-17T15:12:41;48.47;;;27.83;;
59922;SDS011;45778;51.142;3.732;2022-12-17T15:15:08;46.08;;;27.63;;
59922;SDS011;45778;51.142;3.732;2022-12-17T15:17:39;44.42;;;27.25;;
59922;SDS011;45778;51.142;3.732;2022-12-17T15:20:06;46.05;;;27.52;;
59922;SDS011;45778;51.142;3.732;2022-12-17T15:22:35;47.35;;;27.75;;
59922;SDS011;45778;51.142;3.732;2022-12-17T15:25:01;50.88;;;29.30;;
59922;SDS011;45778;51.142;3.732;2022-12-17T15:27:27;53.70;;;29.63;;
59922;SDS011;45778;51.142;3.732;2022-12-17T15:29:53;54.05;;;30.88;;
59922;SDS011;45778;51.142;3.732;2022-12-17T15:32:19;55.30;;;32.22;;
59922;SDS011;45778;51.142;3.732;2022-12-17T15:34:46;57.00;;;32.15;;
59922;SDS011;45778;51.142;3.732;2022-12-17T15:37:12;54.70;;;31.52;;
59922;SDS011;45778;51.142;3.732;2022-12-17T15:39:39;56.28;;;33.00;;
59922;SDS011;45778;51.142;3.732;2022-12-17T15:42:04;66.28;;;31.73;;
59922;SDS011;45778;51.142;3.732;2022-12-17T15:44:49;55.85;;;31.88;;
59922;SDS011;45778;51.142;3.732;2022-12-17T15:47:14;55.92;;;31.27;;
59922;SDS011;45778;51.142;3.732;2022-12-17T15:49:40;56.47;;;32.30;;
59922;SDS011;45778;51.142;3.732;2022-12-17T15:52:07;56.72;;;32.45;;
59922;SDS011;45778;51.142;3.732;2022-12-17T15:54:33;55.63;;;32.17;;
59922;SDS011;45778;51.142;3.732;2022-12-17T15:56:59;61.05;;;33.22;;
59922;SDS011;45778;51.142;3.732;2022-12-17T15:59:24;55.83;;;31.65;;
59922;SDS011;45778;51.142;3.732;2022-12-17T16:01:50;56.38;;;30.85;;
59922;SDS011;45778;51.142;3.732;2022-12-17T16:04:16;64.57;;;33.10;;
59922;SDS011;45778;51.142;3.732;2022-12-17T16:06:41;64.63;;;34.75;;
59922;SDS011;45778;51.142;3.732;2022-12-17T16:09:07;62.58;;;33.95;;
59922;SDS011;45778;51.142;3.732;2022-12-17T16:11:33;55.67;;;31.08;;
59922;SDS011;45778;51.142;3.732;2022-12-17T16:13:58;60.30;;;32.65;;
59922;SDS011;45778;51.142;3.732;2022-12-17T16:16:24;65.88;;;36.65;;
59922;SDS011;45778;51.142;3.732;2022-12-17T16:18:50;72.03;;;41.10;;
59922;SDS011;45778;51.142;3.732;2022-12-17T16:21:16;66.80;;;36.50;;
59922;SDS011;45778;51.142;3.732;2022-12-17T16:23:42;74.30;;;40.78;;
59922;SDS011;45778;51.142;3.732;2022-12-17T16:26:08;74.70;;;40.42;;
59922;SDS011;45778;51.142;3.732;2022-12-17T16:28:34;74.75;;;40.92;;
59922;SDS011;45778;51.142;3.732;2022-12-17T16:31:02;71.32;;;39.17;;
59922;SDS011;45778;51.142;3.732;2022-12-17T16:33:33;70.15;;;38.75;;
59922;SDS011;45778;51.142;3.732;2022-12-17T16:36:00;78.13;;;40.55;;
59922;SDS011;45778;51.142;3.732;2022-12-17T16:38:26;74.13;;;39.05;;
59922;SDS011;45778;51.142;3.732;2022-12-17T16:40:58;66.30;;;36.25;;
59922;SDS011;45778;51.142;3.732;2022-12-17T16:43:26;69.38;;;36.25;;
59922;SDS011;45778;51.142;3.732;2022-12-17T16:45:53;72.13;;;38.13;;
59922;SDS011;45778;51.142;3.732;2022-12-17T16:48:22;68.93;;;36.33;;
59922;SDS011;45778;51.142;3.732;2022-12-17T16:50:48;68.95;;;35.83;;
59922;SDS011;45778;51.142;3.732;2022-12-17T16:53:15;63.50;;;35.53;;
59922;SDS011;45778;51.142;3.732;2022-12-17T16:55:46;66.57;;;34.80;;
59922;SDS011;45778;51.142;3.732;2022-12-17T16:58:13;63.53;;;33.78;;
59922;SDS011;45778;51.142;3.732;2022-12-17T17:00:42;65.07;;;35.13;;
59922;SDS011;45778;51.142;3.732;2022-12-17T17:03:08;64.82;;;34.33;;
59922;SDS011;45778;51.142;3.732;2022-12-17T17:05:35;68.57;;;36.53;;
59922;SDS011;45778;51.142;3.732;2022-12-17T17:08:03;74.70;;;37.45;;
59922;SDS011;45778;51.142;3.732;2022-12-17T17:10:29;69.80;;;37.97;;
59922;SDS011;45778;51.142;3.732;2022-12-17T17:12:55;73.75;;;37.63;;
59922;SDS011;45778;51.142;3.732;2022-12-17T17:15:22;75.15;;;40.25;;
59922;SDS011;45778;51.142;3.732;2022-12-17T17:17:48;63.72;;;35.10;;
59922;SDS011;45778;51.142;3.732;2022-12-17T17:20:15;72.80;;;37.90;;
59922;SDS011;45778;51.142;3.732;2022-12-17T17:22:40;78.78;;;40.78;;
59922;SDS011;45778;51.142;3.732;2022-12-17T17:25:06;72.25;;;37.67;;